Аэропорт: Кневичи. Владивосток

ICAO: UHWW

METAR:
2019-07-23 18:00:00
UHWW 231800Z 00000MPS 4500 -SHRA BR BKN023CB 21/21 Q1003 R25L/290065 NOSIG RMK QFE751
METAR:
2019-07-23 18:05:00
TAF AMD UHWW 231805Z 2318/2418 09003MPS 4000 -SHRA BR BKN012 BKN016CB BECMG 2319/2321 0400 FG VV002 BECMG 2322/2324 3100 BR BKN011 BKN020CB FM240200 19003MPS 9999 BKN030CB TEMPO 2402/2411 3500 -TSRA BKN018CB